sensor_id;sensor_type;location;lat;lon;timestamp;P1;durP1;ratioP1;P2;durP2;ratioP2
10343;SDS011;5217;43.960;10.954;2023-04-15T00:00:55;7.00;;;3.30;;
10343;SDS011;5217;43.960;10.954;2023-04-15T00:03:23;8.47;;;3.53;;
10343;SDS011;5217;43.960;10.954;2023-04-15T00:05:52;5.70;;;2.77;;
10343;SDS011;5217;43.960;10.954;2023-04-15T00:08:21;6.47;;;2.90;;
10343;SDS011;5217;43.960;10.954;2023-04-15T00:10:51;8.87;;;3.30;;
10343;SDS011;5217;43.960;10.954;2023-04-15T00:13:20;7.23;;;3.10;;
10343;SDS011;5217;43.960;10.954;2023-04-15T00:15:48;7.37;;;3.03;;
10343;SDS011;5217;43.960;10.954;2023-04-15T00:18:16;6.53;;;3.10;;
10343;SDS011;5217;43.960;10.954;2023-04-15T00:20:45;7.53;;;3.63;;
10343;SDS011;5217;43.960;10.954;2023-04-15T00:23:13;8.23;;;3.63;;
10343;SDS011;5217;43.960;10.954;2023-04-15T00:25:41;6.07;;;3.43;;
10343;SDS011;5217;43.960;10.954;2023-04-15T00:28:11;11.13;;;5.30;;
10343;SDS011;5217;43.960;10.954;2023-04-15T00:30:39;9.67;;;4.30;;
10343;SDS011;5217;43.960;10.954;2023-04-15T00:33:08;7.90;;;3.53;;
10343;SDS011;5217;43.960;10.954;2023-04-15T00:35:36;6.20;;;3.23;;
10343;SDS011;5217;43.960;10.954;2023-04-15T00:38:04;7.73;;;3.50;;
10343;SDS011;5217;43.960;10.954;2023-04-15T00:40:33;7.37;;;3.20;;
10343;SDS011;5217;43.960;10.954;2023-04-15T00:43:02;6.27;;;2.83;;
10343;SDS011;5217;43.960;10.954;2023-04-15T00:45:32;5.77;;;2.80;;
10343;SDS011;5217;43.960;10.954;2023-04-15T00:48:01;7.23;;;3.10;;
10343;SDS011;5217;43.960;10.954;2023-04-15T00:50:29;6.87;;;3.10;;
10343;SDS011;5217;43.960;10.954;2023-04-15T00:52:58;5.63;;;3.13;;
10343;SDS011;5217;43.960;10.954;2023-04-15T00:55:26;7.10;;;3.33;;
10343;SDS011;5217;43.960;10.954;2023-04-15T00:57:55;8.43;;;3.47;;
10343;SDS011;5217;43.960;10.954;2023-04-15T01:00:23;6.00;;;3.10;;
10343;SDS011;5217;43.960;10.954;2023-04-15T01:02:53;4.57;;;2.70;;
10343;SDS011;5217;43.960;10.954;2023-04-15T01:05:22;5.80;;;3.00;;
10343;SDS011;5217;43.960;10.954;2023-04-15T01:07:51;6.07;;;2.60;;
10343;SDS011;5217;43.960;10.954;2023-04-15T01:10:19;3.93;;;2.20;;
10343;SDS011;5217;43.960;10.954;2023-04-15T01:12:47;4.43;;;2.17;;
10343;SDS011;5217;43.960;10.954;2023-04-15T01:15:16;4.40;;;2.20;;
10343;SDS011;5217;43.960;10.954;2023-04-15T01:17:45;4.97;;;2.00;;
10343;SDS011;5217;43.960;10.954;2023-04-15T01:20:16;5.30;;;2.33;;
10343;SDS011;5217;43.960;10.954;2023-04-15T01:22:44;5.90;;;2.23;;
10343;SDS011;5217;43.960;10.954;2023-04-15T01:25:16;5.23;;;2.50;;
10343;SDS011;5217;43.960;10.954;2023-04-15T01:27:48;5.80;;;2.57;;
10343;SDS011;5217;43.960;10.954;2023-04-15T01:30:17;6.27;;;2.60;;
10343;SDS011;5217;43.960;10.954;2023-04-15T01:32:45;5.63;;;2.60;;
10343;SDS011;5217;43.960;10.954;2023-04-15T01:35:14;4.90;;;2.10;;
10343;SDS011;5217;43.960;10.954;2023-04-15T01:37:43;6.03;;;2.40;;
10343;SDS011;5217;43.960;10.954;2023-04-15T01:40:12;7.87;;;2.63;;
10343;SDS011;5217;43.960;10.954;2023-04-15T01:42:40;4.50;;;2.10;;
10343;SDS011;5217;43.960;10.954;2023-04-15T01:45:11;5.37;;;2.27;;
10343;SDS011;5217;43.960;10.954;2023-04-15T01:47:40;6.67;;;2.57;;
10343;SDS011;5217;43.960;10.954;2023-04-15T01:50:09;6.63;;;2.53;;
10343;SDS011;5217;43.960;10.954;2023-04-15T01:52:38;6.83;;;2.70;;
10343;SDS011;5217;43.960;10.954;2023-04-15T01:55:07;7.63;;;3.40;;
10343;SDS011;5217;43.960;10.954;2023-04-15T01:57:36;4.83;;;2.27;;
10343;SDS011;5217;43.960;10.954;2023-04-15T02:00:05;6.87;;;3.00;;
10343;SDS011;5217;43.960;10.954;2023-04-15T02:02:36;5.90;;;2.53;;
10343;SDS011;5217;43.960;10.954;2023-04-15T02:05:06;5.90;;;2.37;;
10343;SDS011;5217;43.960;10.954;2023-04-15T02:07:35;7.00;;;2.63;;
10343;SDS011;5217;43.960;10.954;2023-04-15T02:10:04;6.13;;;2.47;;
10343;SDS011;5217;43.960;10.954;2023-04-15T02:12:33;6.30;;;2.30;;
10343;SDS011;5217;43.960;10.954;2023-04-15T02:15:02;4.03;;;1.90;;
10343;SDS011;5217;43.960;10.954;2023-04-15T02:17:33;4.83;;;2.07;;
10343;SDS011;5217;43.960;10.954;2023-04-15T02:20:03;3.90;;;1.77;;
10343;SDS011;5217;43.960;10.954;2023-04-15T02:22:32;3.53;;;1.60;;
10343;SDS011;5217;43.960;10.954;2023-04-15T02:25:01;4.00;;;1.87;;
10343;SDS011;5217;43.960;10.954;2023-04-15T02:27:29;4.23;;;1.77;;
10343;SDS011;5217;43.960;10.954;2023-04-15T02:29:58;5.33;;;2.07;;
10343;SDS011;5217;43.960;10.954;2023-04-15T02:32:27;4.40;;;1.80;;
10343;SDS011;5217;43.960;10.954;2023-04-15T02:34:55;4.10;;;1.70;;
10343;SDS011;5217;43.960;10.954;2023-04-15T02:37:30;4.17;;;1.90;;
10343;SDS011;5217;43.960;10.954;2023-04-15T02:40:02;4.10;;;1.90;;
10343;SDS011;5217;43.960;10.954;2023-04-15T02:42:30;3.30;;;1.70;;
10343;SDS011;5217;43.960;10.954;2023-04-15T02:44:59;3.23;;;1.80;;
10343;SDS011;5217;43.960;10.954;2023-04-15T02:47:28;3.93;;;1.70;;
10343;SDS011;5217;43.960;10.954;2023-04-15T02:49:56;4.37;;;1.90;;
10343;SDS011;5217;43.960;10.954;2023-04-15T02:52:26;4.63;;;2.00;;
10343;SDS011;5217;43.960;10.954;2023-04-15T02:54:56;3.13;;;1.60;;
10343;SDS011;5217;43.960;10.954;2023-04-15T02:57:26;3.53;;;1.63;;
10343;SDS011;5217;43.960;10.954;2023-04-15T02:59:55;4.03;;;2.00;;
10343;SDS011;5217;43.960;10.954;2023-04-15T03:02:23;3.70;;;1.80;;
10343;SDS011;5217;43.960;10.954;2023-04-15T03:04:52;3.30;;;1.80;;
10343;SDS011;5217;43.960;10.954;2023-04-15T03:07:21;3.23;;;1.67;;
10343;SDS011;5217;43.960;10.954;2023-04-15T03:09:49;2.73;;;1.50;;
10343;SDS011;5217;43.960;10.954;2023-04-15T03:12:19;3.33;;;1.93;;
10343;SDS011;5217;43.960;10.954;2023-04-15T03:14:48;3.27;;;1.63;;
10343;SDS011;5217;43.960;10.954;2023-04-15T03:17:16;2.97;;;1.70;;
10343;SDS011;5217;43.960;10.954;2023-04-15T03:19:44;4.80;;;2.30;;
10343;SDS011;5217;43.960;10.954;2023-04-15T03:22:13;5.53;;;1.93;;
10343;SDS011;5217;43.960;10.954;2023-04-15T03:24:41;4.27;;;1.90;;
10343;SDS011;5217;43.960;10.954;2023-04-15T03:27:09;3.43;;;1.80;;
10343;SDS011;5217;43.960;10.954;2023-04-15T03:29:39;2.50;;;1.50;;
10343;SDS011;5217;43.960;10.954;2023-04-15T03:32:08;3.73;;;1.83;;
10343;SDS011;5217;43.960;10.954;2023-04-15T03:34:36;3.13;;;1.70;;
10343;SDS011;5217;43.960;10.954;2023-04-15T03:37:04;3.50;;;1.77;;
10343;SDS011;5217;43.960;10.954;2023-04-15T03:39:33;3.97;;;2.00;;
10343;SDS011;5217;43.960;10.954;2023-04-15T03:42:01;4.23;;;1.70;;
10343;SDS011;5217;43.960;10.954;2023-04-15T03:44:29;4.77;;;2.10;;
10343;SDS011;5217;43.960;10.954;2023-04-15T03:46:59;3.30;;;1.73;;
10343;SDS011;5217;43.960;10.954;2023-04-15T03:49:27;3.80;;;1.70;;
10343;SDS011;5217;43.960;10.954;2023-04-15T03:51:56;4.23;;;1.90;;
10343;SDS011;5217;43.960;10.954;2023-04-15T03:54:25;3.60;;;1.67;;
10343;SDS011;5217;43.960;10.954;2023-04-15T03:56:53;2.83;;;1.67;;
10343;SDS011;5217;43.960;10.954;2023-04-15T03:59:22;4.70;;;1.83;;
10343;SDS011;5217;43.960;10.954;2023-04-15T04:01:50;3.40;;;1.70;;
10343;SDS011;5217;43.960;10.954;2023-04-15T04:04:20;3.30;;;1.80;;
10343;SDS011;5217;43.960;10.954;2023-04-15T04:06:49;2.80;;;1.50;;
10343;SDS011;5217;43.960;10.954;2023-04-15T04:09:17;3.40;;;1.90;;
10343;SDS011;5217;43.960;10.954;2023-04-15T04:11:45;3.47;;;1.77;;
10343;SDS011;5217;43.960;10.954;2023-04-15T04:14:13;3.47;;;1.80;;
10343;SDS011;5217;43.960;10.954;2023-04-15T04:16:42;2.97;;;1.80;;
10343;SDS011;5217;43.960;10.954;2023-04-15T04:19:10;5.23;;;1.70;;
10343;SDS011;5217;43.960;10.954;2023-04-15T04:21:41;3.77;;;1.70;;
10343;SDS011;5217;43.960;10.954;2023-04-15T04:24:09;2.83;;;1.50;;
10343;SDS011;5217;43.960;10.954;2023-04-15T04:26:38;3.30;;;1.53;;
10343;SDS011;5217;43.960;10.954;2023-04-15T04:29:06;2.50;;;1.50;;
10343;SDS011;5217;43.960;10.954;2023-04-15T04:31:34;2.90;;;1.57;;
10343;SDS011;5217;43.960;10.954;2023-04-15T04:34:03;2.43;;;1.33;;
10343;SDS011;5217;43.960;10.954;2023-04-15T04:36:31;3.17;;;1.67;;
10343;SDS011;5217;43.960;10.954;2023-04-15T04:39:01;3.90;;;1.67;;
10343;SDS011;5217;43.960;10.954;2023-04-15T04:41:29;3.43;;;1.60;;
10343;SDS011;5217;43.960;10.954;2023-04-15T04:43:57;2.43;;;1.50;;
10343;SDS011;5217;43.960;10.954;2023-04-15T04:46:27;2.23;;;1.37;;
10343;SDS011;5217;43.960;10.954;2023-04-15T04:48:55;2.50;;;1.40;;
10343;SDS011;5217;43.960;10.954;2023-04-15T04:51:24;3.37;;;1.60;;
10343;SDS011;5217;43.960;10.954;2023-04-15T04:53:53;2.50;;;1.50;;
10343;SDS011;5217;43.960;10.954;2023-04-15T04:56:23;2.50;;;1.43;;
10343;SDS011;5217;43.960;10.954;2023-04-15T04:58:52;3.53;;;1.63;;
10343;SDS011;5217;43.960;10.954;2023-04-15T05:01:20;2.83;;;1.50;;
10343;SDS011;5217;43.960;10.954;2023-04-15T05:03:49;3.67;;;1.67;;
10343;SDS011;5217;43.960;10.954;2023-04-15T05:06:17;2.50;;;1.40;;
10343;SDS011;5217;43.960;10.954;2023-04-15T05:08:46;2.53;;;1.70;;
10343;SDS011;5217;43.960;10.954;2023-04-15T05:11:14;2.40;;;1.53;;
10343;SDS011;5217;43.960;10.954;2023-04-15T05:13:44;3.93;;;1.60;;
10343;SDS011;5217;43.960;10.954;2023-04-15T05:16:12;2.53;;;1.50;;
10343;SDS011;5217;43.960;10.954;2023-04-15T05:18:40;2.20;;;1.50;;
10343;SDS011;5217;43.960;10.954;2023-04-15T05:21:09;2.83;;;1.50;;
10343;SDS011;5217;43.960;10.954;2023-04-15T05:23:37;2.93;;;1.50;;
10343;SDS011;5217;43.960;10.954;2023-04-15T05:26:06;2.50;;;1.60;;
10343;SDS011;5217;43.960;10.954;2023-04-15T05:28:34;3.03;;;1.50;;
10343;SDS011;5217;43.960;10.954;2023-04-15T05:31:04;3.37;;;1.77;;
10343;SDS011;5217;43.960;10.954;2023-04-15T05:33:34;2.93;;;1.67;;
10343;SDS011;5217;43.960;10.954;2023-04-15T05:36:03;3.53;;;1.60;;
10343;SDS011;5217;43.960;10.954;2023-04-15T05:38:31;3.90;;;1.77;;
10343;SDS011;5217;43.960;10.954;2023-04-15T05:41:00;2.47;;;1.80;;
10343;SDS011;5217;43.960;10.954;2023-04-15T05:43:28;3.47;;;1.70;;
10343;SDS011;5217;43.960;10.954;2023-04-15T05:45:56;3.43;;;1.90;;
10343;SDS011;5217;43.960;10.954;2023-04-15T05:48:26;4.07;;;1.83;;
10343;SDS011;5217;43.960;10.954;2023-04-15T05:50:55;2.60;;;1.37;;
10343;SDS011;5217;43.960;10.954;2023-04-15T05:53:23;3.77;;;1.70;;
10343;SDS011;5217;43.960;10.954;2023-04-15T05:55:52;3.10;;;1.57;;
10343;SDS011;5217;43.960;10.954;2023-04-15T05:58:20;2.50;;;1.57;;
10343;SDS011;5217;43.960;10.954;2023-04-15T06:00:48;3.10;;;1.40;;
10343;SDS011;5217;43.960;10.954;2023-04-15T06:03:16;3.13;;;1.60;;
10343;SDS011;5217;43.960;10.954;2023-04-15T06:05:46;2.63;;;1.43;;
10343;SDS011;5217;43.960;10.954;2023-04-15T06:08:15;2.90;;;1.60;;
10343;SDS011;5217;43.960;10.954;2023-04-15T06:10:44;3.43;;;1.50;;
10343;SDS011;5217;43.960;10.954;2023-04-15T06:13:12;3.57;;;1.80;;
10343;SDS011;5217;43.960;10.954;2023-04-15T06:15:42;2.93;;;1.50;;
10343;SDS011;5217;43.960;10.954;2023-04-15T06:18:10;2.87;;;1.90;;
10343;SDS011;5217;43.960;10.954;2023-04-15T06:20:38;3.43;;;2.07;;
10343;SDS011;5217;43.960;10.954;2023-04-15T06:23:08;5.00;;;2.70;;
10343;SDS011;5217;43.960;10.954;2023-04-15T06:25:36;2.30;;;1.70;;
10343;SDS011;5217;43.960;10.954;2023-04-15T06:28:05;2.63;;;1.70;;
10343;SDS011;5217;43.960;10.954;2023-04-15T06:30:33;3.77;;;2.30;;
10343;SDS011;5217;43.960;10.954;2023-04-15T06:33:02;3.30;;;1.83;;
10343;SDS011;5217;43.960;10.954;2023-04-15T06:35:31;2.43;;;1.47;;
10343;SDS011;5217;43.960;10.954;2023-04-15T06:38:00;3.40;;;1.50;;
10343;SDS011;5217;43.960;10.954;2023-04-15T06:42:59;2.73;;;1.67;;
10343;SDS011;5217;43.960;10.954;2023-04-15T06:45:27;5.60;;;2.10;;
10343;SDS011;5217;43.960;10.954;2023-04-15T06:47:55;2.87;;;2.33;;
10343;SDS011;5217;43.960;10.954;2023-04-15T06:50:24;3.43;;;2.50;;
10343;SDS011;5217;43.960;10.954;2023-04-15T06:52:52;3.77;;;1.80;;
10343;SDS011;5217;43.960;10.954;2023-04-15T06:55:21;4.83;;;2.07;;
10343;SDS011;5217;43.960;10.954;2023-04-15T06:57:51;3.10;;;2.00;;
10343;SDS011;5217;43.960;10.954;2023-04-15T07:00:19;4.80;;;2.00;;
10343;SDS011;5217;43.960;10.954;2023-04-15T07:02:47;3.20;;;1.83;;
10343;SDS011;5217;43.960;10.954;2023-04-15T07:05:16;4.20;;;1.80;;
10343;SDS011;5217;43.960;10.954;2023-04-15T07:07:45;3.43;;;1.83;;
10343;SDS011;5217;43.960;10.954;2023-04-15T07:10:13;2.47;;;1.70;;
10343;SDS011;5217;43.960;10.954;2023-04-15T07:12:42;2.77;;;1.70;;
10343;SDS011;5217;43.960;10.954;2023-04-15T07:15:12;2.13;;;1.70;;
10343;SDS011;5217;43.960;10.954;2023-04-15T07:17:41;7.07;;;5.43;;
10343;SDS011;5217;43.960;10.954;2023-04-15T07:20:10;10.57;;;9.40;;
10343;SDS011;5217;43.960;10.954;2023-04-15T07:22:39;7.50;;;6.13;;
10343;SDS011;5217;43.960;10.954;2023-04-15T07:25:07;5.53;;;3.70;;
10343;SDS011;5217;43.960;10.954;2023-04-15T07:27:36;2.97;;;2.40;;
10343;SDS011;5217;43.960;10.954;2023-04-15T07:30:05;3.20;;;2.00;;
10343;SDS011;5217;43.960;10.954;2023-04-15T07:32:35;3.00;;;1.70;;
10343;SDS011;5217;43.960;10.954;2023-04-15T07:35:04;3.07;;;1.87;;
10343;SDS011;5217;43.960;10.954;2023-04-15T07:37:33;3.87;;;1.90;;
10343;SDS011;5217;43.960;10.954;2023-04-15T07:40:01;2.47;;;1.90;;
10343;SDS011;5217;43.960;10.954;2023-04-15T07:42:32;3.33;;;2.10;;
10343;SDS011;5217;43.960;10.954;2023-04-15T07:45:03;5.90;;;4.77;;
10343;SDS011;5217;43.960;10.954;2023-04-15T07:47:32;16.00;;;11.93;;
10343;SDS011;5217;43.960;10.954;2023-04-15T07:50:02;26.47;;;20.23;;
10343;SDS011;5217;43.960;10.954;2023-04-15T07:52:30;25.43;;;19.73;;
10343;SDS011;5217;43.960;10.954;2023-04-15T07:55:04;20.03;;;16.27;;
10343;SDS011;5217;43.960;10.954;2023-04-15T07:57:33;15.13;;;11.77;;
10343;SDS011;5217;43.960;10.954;2023-04-15T08:00:02;11.00;;;9.00;;
10343;SDS011;5217;43.960;10.954;2023-04-15T08:02:33;10.43;;;7.53;;
10343;SDS011;5217;43.960;10.954;2023-04-15T08:05:06;11.03;;;7.40;;
10343;SDS011;5217;43.960;10.954;2023-04-15T08:07:36;6.17;;;5.23;;
10343;SDS011;5217;43.960;10.954;2023-04-15T08:10:05;3.80;;;3.00;;
10343;SDS011;5217;43.960;10.954;2023-04-15T08:12:34;3.17;;;2.60;;
10343;SDS011;5217;43.960;10.954;2023-04-15T08:15:03;4.33;;;2.83;;
10343;SDS011;5217;43.960;10.954;2023-04-15T08:17:33;4.57;;;2.83;;
10343;SDS011;5217;43.960;10.954;2023-04-15T08:20:02;4.00;;;2.53;;
10343;SDS011;5217;43.960;10.954;2023-04-15T08:22:33;3.43;;;2.23;;
10343;SDS011;5217;43.960;10.954;2023-04-15T08:25:01;2.90;;;1.83;;
10343;SDS011;5217;43.960;10.954;2023-04-15T08:27:30;2.33;;;1.67;;
10343;SDS011;5217;43.960;10.954;2023-04-15T08:29:59;2.20;;;2.00;;
10343;SDS011;5217;43.960;10.954;2023-04-15T08:32:30;3.87;;;2.20;;
10343;SDS011;5217;43.960;10.954;2023-04-15T08:34:58;4.20;;;3.80;;
10343;SDS011;5217;43.960;10.954;2023-04-15T08:37:27;4.40;;;3.37;;
10343;SDS011;5217;43.960;10.954;2023-04-15T08:39:56;3.40;;;2.50;;
10343;SDS011;5217;43.960;10.954;2023-04-15T08:42:26;3.47;;;2.63;;
10343;SDS011;5217;43.960;10.954;2023-04-15T08:44:58;4.37;;;2.80;;
10343;SDS011;5217;43.960;10.954;2023-04-15T08:47:28;3.27;;;2.47;;
10343;SDS011;5217;43.960;10.954;2023-04-15T08:49:58;4.57;;;2.63;;
10343;SDS011;5217;43.960;10.954;2023-04-15T08:52:29;5.23;;;3.30;;
10343;SDS011;5217;43.960;10.954;2023-04-15T08:55:01;4.47;;;3.17;;
10343;SDS011;5217;43.960;10.954;2023-04-15T08:57:30;3.90;;;3.00;;
10343;SDS011;5217;43.960;10.954;2023-04-15T09:00:00;4.50;;;3.27;;
10343;SDS011;5217;43.960;10.954;2023-04-15T09:02:31;4.63;;;3.40;;
10343;SDS011;5217;43.960;10.954;2023-04-15T09:05:00;4.20;;;2.90;;
10343;SDS011;5217;43.960;10.954;2023-04-15T09:07:32;4.13;;;2.77;;
10343;SDS011;5217;43.960;10.954;2023-04-15T09:10:03;3.80;;;2.80;;
10343;SDS011;5217;43.960;10.954;2023-04-15T09:12:33;3.83;;;2.43;;
10343;SDS011;5217;43.960;10.954;2023-04-15T09:15:02;3.60;;;2.20;;
10343;SDS011;5217;43.960;10.954;2023-04-15T09:17:32;3.40;;;2.17;;
10343;SDS011;5217;43.960;10.954;2023-04-15T09:20:07;3.23;;;2.20;;
10343;SDS011;5217;43.960;10.954;2023-04-15T09:22:36;3.37;;;2.17;;
10343;SDS011;5217;43.960;10.954;2023-04-15T09:25:18;3.87;;;2.13;;
10343;SDS011;5217;43.960;10.954;2023-04-15T09:27:53;3.40;;;1.83;;
10343;SDS011;5217;43.960;10.954;2023-04-15T09:30:22;2.63;;;1.93;;
10343;SDS011;5217;43.960;10.954;2023-04-15T09:32:51;2.43;;;1.70;;
10343;SDS011;5217;43.960;10.954;2023-04-15T09:35:22;2.40;;;1.87;;
10343;SDS011;5217;43.960;10.954;2023-04-15T09:37:52;2.60;;;1.93;;
10343;SDS011;5217;43.960;10.954;2023-04-15T09:40:33;3.00;;;1.97;;
10343;SDS011;5217;43.960;10.954;2023-04-15T09:43:02;2.53;;;1.87;;
10343;SDS011;5217;43.960;10.954;2023-04-15T09:45:31;2.70;;;1.90;;
10343;SDS011;5217;43.960;10.954;2023-04-15T09:48:13;2.83;;;1.97;;
10343;SDS011;5217;43.960;10.954;2023-04-15T09:50:43;3.90;;;2.10;;
10343;SDS011;5217;43.960;10.954;2023-04-15T09:53:14;2.67;;;2.23;;
10343;SDS011;5217;43.960;10.954;2023-04-15T09:55:48;3.97;;;2.70;;
10343;SDS011;5217;43.960;10.954;2023-04-15T09:58:17;4.03;;;3.33;;
10343;SDS011;5217;43.960;10.954;2023-04-15T10:00:47;3.83;;;3.00;;
10343;SDS011;5217;43.960;10.954;2023-04-15T10:03:17;2.93;;;2.53;;
10343;SDS011;5217;43.960;10.954;2023-04-15T10:05:48;2.77;;;2.13;;
10343;SDS011;5217;43.960;10.954;2023-04-15T10:08:18;2.70;;;2.03;;
10343;SDS011;5217;43.960;10.954;2023-04-15T10:10:48;3.53;;;2.20;;
10343;SDS011;5217;43.960;10.954;2023-04-15T10:13:18;3.73;;;1.87;;
10343;SDS011;5217;43.960;10.954;2023-04-15T10:15:50;2.67;;;1.77;;
10343;SDS011;5217;43.960;10.954;2023-04-15T10:18:22;2.53;;;1.77;;
10343;SDS011;5217;43.960;10.954;2023-04-15T10:20:53;2.67;;;1.70;;
10343;SDS011;5217;43.960;10.954;2023-04-15T10:23:21;3.07;;;2.00;;
10343;SDS011;5217;43.960;10.954;2023-04-15T10:25:52;2.10;;;1.60;;
10343;SDS011;5217;43.960;10.954;2023-04-15T10:28:21;2.73;;;1.60;;
10343;SDS011;5217;43.960;10.954;2023-04-15T10:30:50;2.57;;;1.83;;
10343;SDS011;5217;43.960;10.954;2023-04-15T10:33:20;2.93;;;1.60;;
10343;SDS011;5217;43.960;10.954;2023-04-15T10:35:50;3.63;;;1.77;;
10343;SDS011;5217;43.960;10.954;2023-04-15T10:38:30;3.27;;;1.73;;
10343;SDS011;5217;43.960;10.954;2023-04-15T10:43:51;3.70;;;1.90;;
10343;SDS011;5217;43.960;10.954;2023-04-15T10:46:21;2.50;;;1.77;;
10343;SDS011;5217;43.960;10.954;2023-04-15T10:48:51;4.97;;;1.60;;
10343;SDS011;5217;43.960;10.954;2023-04-15T10:51:27;2.60;;;1.60;;
10343;SDS011;5217;43.960;10.954;2023-04-15T10:53:57;3.30;;;1.70;;
10343;SDS011;5217;43.960;10.954;2023-04-15T10:56:28;2.33;;;1.40;;
10343;SDS011;5217;43.960;10.954;2023-04-15T10:59:00;2.93;;;1.60;;
10343;SDS011;5217;43.960;10.954;2023-04-15T11:07:32;2.03;;;1.27;;
10343;SDS011;5217;43.960;10.954;2023-04-15T11:10:02;2.70;;;1.30;;
10343;SDS011;5217;43.960;10.954;2023-04-15T11:12:34;2.93;;;1.40;;
10343;SDS011;5217;43.960;10.954;2023-04-15T11:17:56;2.00;;;1.30;;
10343;SDS011;5217;43.960;10.954;2023-04-15T11:20:25;1.35;;;1.15;;
10343;SDS011;5217;43.960;10.954;2023-04-15T11:22:54;1.65;;;0.98;;
10343;SDS011;5217;43.960;10.954;2023-04-15T11:25:40;1.80;;;1.02;;
10343;SDS011;5217;43.960;10.954;2023-04-15T11:28:11;3.80;;;1.52;;
10343;SDS011;5217;43.960;10.954;2023-04-15T11:30:40;2.25;;;1.20;;
10343;SDS011;5217;43.960;10.954;2023-04-15T11:33:10;2.40;;;0.98;;
10343;SDS011;5217;43.960;10.954;2023-04-15T11:35:39;1.55;;;1.10;;
10343;SDS011;5217;43.960;10.954;2023-04-15T11:38:09;2.30;;;1.10;;
10343;SDS011;5217;43.960;10.954;2023-04-15T11:40:39;1.10;;;0.90;;
10343;SDS011;5217;43.960;10.954;2023-04-15T11:43:14;2.25;;;1.20;;
10343;SDS011;5217;43.960;10.954;2023-04-15T11:45:49;2.45;;;1.10;;
10343;SDS011;5217;43.960;10.954;2023-04-15T11:48:20;2.13;;;1.70;;
10343;SDS011;5217;43.960;10.954;2023-04-15T11:50:53;3.03;;;1.67;;
10343;SDS011;5217;43.960;10.954;2023-04-15T11:53:23;2.30;;;1.27;;
10343;SDS011;5217;43.960;10.954;2023-04-15T11:55:52;1.80;;;1.30;;
10343;SDS011;5217;43.960;10.954;2023-04-15T11:58:23;1.75;;;1.35;;
10343;SDS011;5217;43.960;10.954;2023-04-15T12:00:54;2.08;;;1.20;;
10343;SDS011;5217;43.960;10.954;2023-04-15T12:03:24;1.92;;;1.23;;
10343;SDS011;5217;43.960;10.954;2023-04-15T12:08:56;1.73;;;1.20;;
10343;SDS011;5217;43.960;10.954;2023-04-15T12:11:30;1.75;;;1.00;;
10343;SDS011;5217;43.960;10.954;2023-04-15T12:14:05;1.65;;;1.10;;
10343;SDS011;5217;43.960;10.954;2023-04-15T12:16:36;2.05;;;1.20;;
10343;SDS011;5217;43.960;10.954;2023-04-15T12:19:15;1.92;;;1.05;;
10343;SDS011;5217;43.960;10.954;2023-04-15T12:21:46;2.35;;;1.02;;
10343;SDS011;5217;43.960;10.954;2023-04-15T12:24:19;1.10;;;1.00;;
10343;SDS011;5217;43.960;10.954;2023-04-15T12:26:49;2.38;;;1.20;;
10343;SDS011;5217;43.960;10.954;2023-04-15T12:29:23;1.95;;;1.30;;
10343;SDS011;5217;43.960;10.954;2023-04-15T12:31:54;1.70;;;1.20;;
10343;SDS011;5217;43.960;10.954;2023-04-15T12:34:26;1.13;;;1.00;;
10343;SDS011;5217;43.960;10.954;2023-04-15T12:36:57;2.00;;;1.25;;
10343;SDS011;5217;43.960;10.954;2023-04-15T12:39:27;1.75;;;1.20;;
10343;SDS011;5217;43.960;10.954;2023-04-15T12:41:57;0.98;;;0.88;;
10343;SDS011;5217;43.960;10.954;2023-04-15T12:44:28;1.77;;;1.20;;
10343;SDS011;5217;43.960;10.954;2023-04-15T12:46:57;1.40;;;1.08;;
10343;SDS011;5217;43.960;10.954;2023-04-15T12:49:27;2.72;;;1.30;;
10343;SDS011;5217;43.960;10.954;2023-04-15T12:51:56;1.63;;;1.15;;
10343;SDS011;5217;43.960;10.954;2023-04-15T12:54:26;3.40;;;1.27;;
10343;SDS011;5217;43.960;10.954;2023-04-15T12:56:55;1.52;;;1.30;;
10343;SDS011;5217;43.960;10.954;2023-04-15T12:59:24;3.95;;;3.00;;
10343;SDS011;5217;43.960;10.954;2023-04-15T13:01:54;2.97;;;2.40;;
10343;SDS011;5217;43.960;10.954;2023-04-15T13:04:23;3.65;;;2.45;;
10343;SDS011;5217;43.960;10.954;2023-04-15T13:06:56;4.43;;;3.17;;
10343;SDS011;5217;43.960;10.954;2023-04-15T13:09:25;2.63;;;1.73;;
10343;SDS011;5217;43.960;10.954;2023-04-15T13:11:53;2.65;;;1.52;;
10343;SDS011;5217;43.960;10.954;2023-04-15T13:14:23;2.13;;;1.50;;
10343;SDS011;5217;43.960;10.954;2023-04-15T13:16:51;1.92;;;1.40;;
10343;SDS011;5217;43.960;10.954;2023-04-15T13:19:21;2.15;;;1.30;;
10343;SDS011;5217;43.960;10.954;2023-04-15T13:21:50;1.77;;;1.20;;
10343;SDS011;5217;43.960;10.954;2023-04-15T13:24:18;2.30;;;1.30;;
10343;SDS011;5217;43.960;10.954;2023-04-15T13:26:47;1.58;;;1.20;;
10343;SDS011;5217;43.960;10.954;2023-04-15T13:29:15;2.03;;;1.60;;
10343;SDS011;5217;43.960;10.954;2023-04-15T13:31:44;2.42;;;1.30;;
10343;SDS011;5217;43.960;10.954;2023-04-15T13:34:12;2.22;;;1.27;;
10343;SDS011;5217;43.960;10.954;2023-04-15T13:36:42;2.38;;;1.50;;
10343;SDS011;5217;43.960;10.954;2023-04-15T13:39:12;1.38;;;1.08;;
10343;SDS011;5217;43.960;10.954;2023-04-15T13:41:40;3.15;;;1.20;;
10343;SDS011;5217;43.960;10.954;2023-04-15T13:44:09;1.40;;;1.10;;
10343;SDS011;5217;43.960;10.954;2023-04-15T13:46:37;1.30;;;1.20;;
10343;SDS011;5217;43.960;10.954;2023-04-15T13:49:07;1.20;;;1.10;;
10343;SDS011;5217;43.960;10.954;2023-04-15T13:51:35;1.92;;;1.27;;
10343;SDS011;5217;43.960;10.954;2023-04-15T13:54:05;1.27;;;1.00;;
10343;SDS011;5217;43.960;10.954;2023-04-15T13:56:33;3.28;;;1.50;;
10343;SDS011;5217;43.960;10.954;2023-04-15T13:59:02;1.35;;;1.00;;
10343;SDS011;5217;43.960;10.954;2023-04-15T14:01:31;2.38;;;1.10;;
10343;SDS011;5217;43.960;10.954;2023-04-15T14:04:01;1.83;;;1.15;;
10343;SDS011;5217;43.960;10.954;2023-04-15T14:06:30;2.10;;;1.27;;
10343;SDS011;5217;43.960;10.954;2023-04-15T14:08:58;0.80;;;0.80;;
10343;SDS011;5217;43.960;10.954;2023-04-15T14:11:28;1.20;;;1.02;;
10343;SDS011;5217;43.960;10.954;2023-04-15T14:13:57;1.20;;;0.93;;
10343;SDS011;5217;43.960;10.954;2023-04-15T14:16:25;1.98;;;1.00;;
10343;SDS011;5217;43.960;10.954;2023-04-15T14:18:54;1.50;;;0.98;;
10343;SDS011;5217;43.960;10.954;2023-04-15T14:21:24;1.42;;;1.00;;
10343;SDS011;5217;43.960;10.954;2023-04-15T14:23:53;1.17;;;0.95;;
10343;SDS011;5217;43.960;10.954;2023-04-15T14:26:22;1.55;;;1.08;;
10343;SDS011;5217;43.960;10.954;2023-04-15T14:28:53;1.63;;;1.10;;
10343;SDS011;5217;43.960;10.954;2023-04-15T14:31:22;1.10;;;1.00;;
10343;SDS011;5217;43.960;10.954;2023-04-15T14:33:52;1.65;;;0.80;;
10343;SDS011;5217;43.960;10.954;2023-04-15T14:36:20;1.27;;;0.95;;
10343;SDS011;5217;43.960;10.954;2023-04-15T14:38:49;1.33;;;1.10;;
10343;SDS011;5217;43.960;10.954;2023-04-15T14:41:17;2.55;;;1.13;;
10343;SDS011;5217;43.960;10.954;2023-04-15T14:43:46;0.85;;;0.85;;
10343;SDS011;5217;43.960;10.954;2023-04-15T14:46:16;1.10;;;1.00;;
10343;SDS011;5217;43.960;10.954;2023-04-15T14:48:44;1.73;;;1.20;;
10343;SDS011;5217;43.960;10.954;2023-04-15T14:51:12;1.58;;;1.20;;
10343;SDS011;5217;43.960;10.954;2023-04-15T14:53:41;1.63;;;1.08;;
10343;SDS011;5217;43.960;10.954;2023-04-15T14:56:10;2.55;;;1.20;;
10343;SDS011;5217;43.960;10.954;2023-04-15T14:58:38;1.73;;;1.40;;
10343;SDS011;5217;43.960;10.954;2023-04-15T15:01:07;1.45;;;1.20;;
10343;SDS011;5217;43.960;10.954;2023-04-15T15:03:37;1.50;;;1.40;;
10343;SDS011;5217;43.960;10.954;2023-04-15T15:06:06;2.83;;;1.88;;
10343;SDS011;5217;43.960;10.954;2023-04-15T15:08:34;3.50;;;3.20;;
10343;SDS011;5217;43.960;10.954;2023-04-15T15:11:03;5.10;;;4.60;;
10343;SDS011;5217;43.960;10.954;2023-04-15T15:13:31;4.78;;;4.38;;
10343;SDS011;5217;43.960;10.954;2023-04-15T15:16:00;5.18;;;4.60;;
10343;SDS011;5217;43.960;10.954;2023-04-15T15:18:29;4.90;;;4.40;;